LVBLE SAZM-SAZR
Flight info
| Callsign | LVBLE |
|---|---|
| Flight time | N/A |
| Altitude | 28000 |
| Route | ESURO1G ESURO DCT DIL UT688 VUSAP DCT OSA |
| Aircraft | B722/M-SDFGHRWY/C |
Departure
| Time | 2026-04-30 09:18 |
|---|---|
| Airport | Ástor Piazzola International Airport (SAZM) |
Arrival
| Time | N/A |
|---|---|
| Airport | Santa Rosa Airport (SAZR) |
| Time | Latitude | Longitude | Altitude | Speed | Heading |
|---|---|---|---|---|---|
| 2026-04-30 09:18 | -37.85453 | -57.75884 | 6948 ft | 245 kts | 295° |
| 2026-04-30 09:18 | -37.84621 | -57.77864 | 7426 ft | 265 kts | 295° |
| 2026-04-30 09:18 | -37.83730 | -57.79977 | 7902 ft | 278 kts | 295° |
| 2026-04-30 09:18 | -37.82803 | -57.82171 | 8376 ft | 287 kts | 295° |
| 2026-04-30 09:19 | -37.81848 | -57.84441 | 8855 ft | 297 kts | 295° |
| 2026-04-30 09:19 | -37.80861 | -57.86787 | 9326 ft | 307 kts | 295° |
| 2026-04-30 09:19 | -37.79845 | -57.89196 | 9848 ft | 314 kts | 295° |
| 2026-04-30 09:19 | -37.78803 | -57.91662 | 10331 ft | 320 kts | 295° |
| 2026-04-30 09:20 | -37.77772 | -57.94097 | 10814 ft | 319 kts | 294° |
| 2026-04-30 09:20 | -37.76708 | -57.96613 | 11315 ft | 319 kts | 294° |
| 2026-04-30 09:20 | -37.75665 | -57.99081 | 11799 ft | 318 kts | 294° |
| 2026-04-30 09:20 | -37.74677 | -58.01574 | 12313 ft | 315 kts | 287° |
| 2026-04-30 09:21 | -37.74222 | -58.04206 | 12819 ft | 309 kts | 272° |
| 2026-04-30 09:21 | -37.74344 | -58.06919 | 13353 ft | 306 kts | 258° |
| 2026-04-30 09:21 | -37.75015 | -58.09418 | 13861 ft | 304 kts | 245° |
| 2026-04-30 09:21 | -37.75603 | -58.11951 | 14340 ft | 302 kts | 267° |
| 2026-04-30 09:22 | -37.75107 | -58.14520 | 14848 ft | 308 kts | 295° |
| 2026-04-30 09:22 | -37.73597 | -58.16482 | 15366 ft | 322 kts | 323° |
| 2026-04-30 09:22 | -37.71410 | -58.17313 | 15889 ft | 340 kts | 351° |
| 2026-04-30 09:22 | -37.69041 | -58.16738 | 16426 ft | 358 kts | 19° |
| 2026-04-30 09:23 | -37.67015 | -58.14812 | 16963 ft | 376 kts | 46° |
| 2026-04-30 09:23 | -37.65767 | -58.11877 | 17523 ft | 387 kts | 74° |
| 2026-04-30 09:23 | -37.65580 | -58.08505 | 18082 ft | 386 kts | 102° |
| 2026-04-30 09:23 | -37.66489 | -58.05394 | 18602 ft | 374 kts | 130° |
| 2026-04-30 09:24 | -37.68265 | -58.03160 | 19100 ft | 352 kts | 159° |
| 2026-04-30 09:24 | -37.70470 | -58.02222 | 19624 ft | 323 kts | 187° |
| 2026-04-30 09:24 | -37.72532 | -58.02669 | 20139 ft | 294 kts | 215° |
| 2026-04-30 09:24 | -37.74093 | -58.04184 | 20687 ft | 279 kts | 232° |
| 2026-04-30 09:25 | -37.75392 | -58.05999 | 21212 ft | 278 kts | 234° |
| 2026-04-30 09:25 | -37.76682 | -58.07834 | 21733 ft | 280 kts | 232° |
| 2026-04-30 09:25 | -37.78092 | -58.09555 | 22255 ft | 283 kts | 228° |
| 2026-04-30 09:25 | -37.79638 | -58.11113 | 22790 ft | 286 kts | 223° |
| 2026-04-30 09:26 | -37.81314 | -58.12493 | 23325 ft | 289 kts | 219° |
| 2026-04-30 09:26 | -37.83104 | -58.13691 | 23816 ft | 292 kts | 215° |
| 2026-04-30 09:26 | -37.84988 | -58.14687 | 24273 ft | 296 kts | 211° |